Time;durP1;ratioP1;P1;durP2;ratioP2;P2;SDS_P1;SDS_P2;PMS_P1;PMS_P2;Temp;Humidity;BMP_temperature;BMP_pressure;BME280_temperature;BME280_humidity;BME280_pressure;Samples;Min_cycle;Max_cycle;Signal;HPM_P1;HPM_P2
2022/09/20 00:00:14;;;;;;;;;;;19.20;85.90;;;;;;5096317;28;19912;-47
2022/09/20 00:02:39;;;;;;;;;;;19.20;85.90;;;;;;5096014;28;19915;-48
2022/09/20 00:05:07;;;;;;;;;;;19.20;85.80;;;;;;5114469;28;20244;-47
2022/09/20 00:07:32;;;;;;;;;;;19.20;86.30;;;;;;5096112;28;19951;-49
2022/09/20 00:09:58;;;;;;;;;;;19.20;85.90;;;;;;5114155;28;19907;-46
2022/09/20 00:12:23;;;;;;;;;;;19.20;85.90;;;;;;5114433;28;19908;-50
2022/09/20 00:14:49;;;;;;;;;;;19.20;85.80;;;;;;5114451;28;20239;-48
2022/09/20 00:17:14;;;;;;;;;;;19.10;85.80;;;;;;5113957;28;19912;-47
2022/09/20 00:19:40;;;;;;;;;;;19.20;85.90;;;;;;5096377;28;20015;-49
2022/09/20 00:22:05;;;;;;;;;;;19.20;85.90;;;;;;5113987;28;20495;-47
2022/09/20 00:24:31;;;;;;;;;;;19.20;85.90;;;;;;5114307;28;20261;-50
2022/09/20 00:26:56;;;;;;;;;;;19.20;85.90;;;;;;5114006;28;19955;-51
2022/09/20 00:29:22;;;;;;;;;;;19.20;85.90;;;;;;5114584;28;19908;-48
2022/09/20 00:31:47;;;;;;;;;;;19.20;85.90;;;;;;5114125;28;20356;-48
2022/09/20 00:36:57;;;;;;;;;;;19.20;85.90;;;;;;5100152;28;20302;-47
2022/09/20 00:39:22;;;;;;;;;;;19.20;85.90;;;;;;5093884;28;19912;-50
2022/09/20 00:41:48;;;;;;;;;;;19.20;85.90;;;;;;5093414;28;20350;-47
2022/09/20 00:44:32;;;;;;;;;;;19.20;85.80;;;;;;5093753;28;20010;-48
2022/09/20 00:46:58;;;;;;;;;;;19.20;85.90;;;;;;5075968;28;20301;-47
2022/09/20 00:49:26;;;;;;;;;;;19.20;85.80;;;;;;5093768;28;19915;-48
2022/09/20 00:51:56;;;;;;;;;;;19.20;85.90;;;;;;5093364;28;19915;-48
2022/09/20 00:54:22;;;;;;;;;;;19.10;85.90;;;;;;5093293;28;19912;-49
2022/09/20 00:56:48;;;;;;;;;;;19.10;85.90;;;;;;5093692;28;19912;-47
2022/09/20 00:59:24;;;;;;;;;;;19.10;85.90;;;;;;5093718;28;19909;-46
2022/09/20 01:01:52;;;;;;;;;;;19.10;86.00;;;;;;5093689;28;19908;-48
2022/09/20 01:04:20;;;;;;;;;;;19.10;86.00;;;;;;5093138;28;20489;-48
2022/09/20 01:06:47;;;;;;;;;;;19.10;86.00;;;;;;5093684;28;19908;-48
2022/09/20 01:09:13;;;;;;;;;;;19.00;85.90;;;;;;5093609;28;19914;-48
2022/09/20 01:11:39;;;;;;;;;;;19.00;86.00;;;;;;5075398;28;19991;-49
2022/09/20 01:14:05;;;;;;;;;;;19.00;86.00;;;;;;5094654;28;20011;-49
2022/09/20 01:16:31;;;;;;;;;;;19.00;86.00;;;;;;5096884;28;20370;-49
2022/09/20 01:18:59;;;;;;;;;;;19.00;86.10;;;;;;5096824;28;20320;-49
2022/09/20 01:21:25;;;;;;;;;;;19.00;86.10;;;;;;5097078;28;19908;-48
2022/09/20 01:24:14;;;;;;;;;;;19.00;86.20;;;;;;5097074;28;19951;-50
2022/09/20 01:26:48;;;;;;;;;;;19.00;86.20;;;;;;5097072;28;19939;-48
2022/09/20 01:29:19;;;;;;;;;;;19.00;86.30;;;;;;5078730;28;19908;-47
2022/09/20 01:31:48;;;;;;;;;;;19.00;86.20;;;;;;5096625;28;20003;-47
2022/09/20 01:34:18;;;;;;;;;;;18.90;86.20;;;;;;5096473;28;20365;-48
2022/09/20 01:36:54;;;;;;;;;;;18.90;86.20;;;;;;5108542;28;19911;-47
2022/09/20 01:39:23;;;;;;;;;;;18.90;86.30;;;;;;5117423;28;20377;-48
2022/09/20 01:41:51;;;;;;;;;;;18.90;86.30;;;;;;5117053;28;20418;-46
2022/09/20 01:44:37;;;;;;;;;;;18.90;86.30;;;;;;5117057;28;20357;-47
2022/09/20 01:47:08;;;;;;;;;;;18.90;86.30;;;;;;5102275;28;19957;-46
2022/09/20 01:49:56;;;;;;;;;;;18.90;86.40;;;;;;5098820;28;19907;-47
2022/09/20 01:52:34;;;;;;;;;;;18.90;86.50;;;;;;5098732;28;19908;-47
2022/09/20 01:54:59;;;;;;;;;;;18.80;86.50;;;;;;5116589;28;19912;-48
2022/09/20 01:57:40;;;;;;;;;;;18.80;86.50;;;;;;5116482;28;19919;-48
2022/09/20 02:00:05;;;;;;;;;;;18.90;86.60;;;;;;5116584;28;20274;-47
2022/09/20 02:02:59;;;;;;;;;;;18.80;86.60;;;;;;5098355;28;19916;-49
2022/09/20 02:05:43;;;;;;;;;;;18.80;86.40;;;;;;5116836;28;19919;-50
2022/09/20 02:08:16;;;;;;;;;;;18.80;86.40;;;;;;5115652;28;20193;-48
2022/09/20 02:10:54;;;;;;;;;;;18.80;86.50;;;;;;5116162;28;20007;-47
2022/09/20 02:13:25;;;;;;;;;;;18.80;86.50;;;;;;5116700;28;19911;-48
2022/09/20 02:16:09;;;;;;;;;;;18.80;86.50;;;;;;5116366;28;19912;-49
2022/09/20 02:18:34;;;;;;;;;;;18.80;86.50;;;;;;5116175;28;19908;-48
2022/09/20 02:21:09;;;;;;;;;;;18.80;86.60;;;;;;5116024;28;20002;-47
2022/09/20 02:23:37;;;;;;;;;;;18.80;86.60;;;;;;5116031;28;19922;-48
2022/09/20 02:26:06;;;;;;;;;;;18.80;86.50;;;;;;5116350;28;19914;-47
2022/09/20 02:28:40;;;;;;;;;;;18.80;86.60;;;;;;5116110;28;19908;-49
2022/09/20 02:31:05;;;;;;;;;;;18.80;86.60;;;;;;5097846;28;19907;-49
2022/09/20 02:33:34;;;;;;;;;;;18.80;86.60;;;;;;5115695;28;19908;-47
2022/09/20 02:35:59;;;;;;;;;;;18.70;86.50;;;;;;5109723;28;20424;-48
2022/09/20 02:38:28;;;;;;;;;;;18.70;86.50;;;;;;5095324;28;19908;-49
2022/09/20 02:40:53;;;;;;;;;;;18.70;86.50;;;;;;5095240;28;19954;-48
2022/09/20 02:43:29;;;;;;;;;;;18.70;86.60;;;;;;5095144;28;19908;-48
2022/09/20 02:46:13;;;;;;;;;;;18.70;86.60;;;;;;5095205;28;19908;-48
2022/09/20 02:48:45;;;;;;;;;;;18.70;86.70;;;;;;5095143;28;19988;-48
2022/09/20 02:51:23;;;;;;;;;;;18.70;86.70;;;;;;5095665;28;19908;-52
2022/09/20 02:54:27;;;;;;;;;;;18.70;86.70;;;;;;5077130;28;19912;-50
2022/09/20 02:56:53;;;;;;;;;;;18.70;86.60;;;;;;5032612;28;19913;-50
2022/09/20 02:59:37;;;;;;;;;;;18.60;86.80;;;;;;5016064;28;19963;-50
2022/09/20 03:02:09;;;;;;;;;;;18.60;86.90;;;;;;5069545;28;19908;-49
2022/09/20 03:04:35;;;;;;;;;;;18.60;86.90;;;;;;5094994;28;20014;-48
2022/09/20 03:07:06;;;;;;;;;;;18.60;86.90;;;;;;5094665;28;19959;-48
2022/09/20 03:09:34;;;;;;;;;;;18.60;86.80;;;;;;5094708;28;19915;-49
2022/09/20 03:12:19;;;;;;;;;;;18.60;86.80;;;;;;5076774;28;19908;-47
2022/09/20 03:14:53;;;;;;;;;;;18.60;86.90;;;;;;5094522;28;19912;-47
2022/09/20 03:17:26;;;;;;;;;;;18.60;86.80;;;;;;5094672;28;19958;-49
2022/09/20 03:20:04;;;;;;;;;;;18.60;86.80;;;;;;5094798;28;19912;-50
2022/09/20 03:22:30;;;;;;;;;;;18.60;86.90;;;;;;5094733;28;19915;-48
2022/09/20 03:25:13;;;;;;;;;;;18.60;86.90;;;;;;5094390;28;20012;-50
2022/09/20 03:27:42;;;;;;;;;;;18.60;86.70;;;;;;5094532;28;19908;-47
2022/09/20 03:30:13;;;;;;;;;;;18.60;86.70;;;;;;5094626;28;19951;-47
2022/09/20 03:32:51;;;;;;;;;;;18.60;86.80;;;;;;5094680;28;20007;-50
2022/09/20 03:35:19;;;;;;;;;;;18.60;86.80;;;;;;5094465;28;19962;-48
2022/09/20 03:37:54;;;;;;;;;;;18.60;87.30;;;;;;5073538;28;19912;-51
2022/09/20 03:40:23;;;;;;;;;;;18.60;86.90;;;;;;5074093;28;19954;-48
2022/09/20 03:42:50;;;;;;;;;;;18.60;86.80;;;;;;5074249;28;19916;-47
2022/09/20 03:45:23;;;;;;;;;;;18.50;86.80;;;;;;5074071;28;19963;-46
2022/09/20 03:47:51;;;;;;;;;;;18.60;86.70;;;;;;5073996;28;20283;-47
2022/09/20 03:50:35;;;;;;;;;;;18.50;86.90;;;;;;5073918;28;20294;-47
2022/09/20 03:53:03;;;;;;;;;;;18.50;86.80;;;;;;5074365;28;19915;-48
2022/09/20 03:55:42;;;;;;;;;;;18.50;86.90;;;;;;5073961;28;19912;-48
2022/09/20 03:58:30;;;;;;;;;;;18.50;86.70;;;;;;5074224;28;20307;-48
2022/09/20 04:01:03;;;;;;;;;;;18.50;86.70;;;;;;5074128;28;19908;-48
2022/09/20 04:03:34;;;;;;;;;;;18.60;86.90;;;;;;5073901;28;20346;-51
2022/09/20 04:06:15;;;;;;;;;;;18.60;86.70;;;;;;5056088;28;19908;-50
2022/09/20 04:08:59;;;;;;;;;;;18.50;86.60;;;;;;5074292;28;19912;-49
2022/09/20 04:11:30;;;;;;;;;;;18.50;86.80;;;;;;5073865;28;19978;-47
2022/09/20 04:14:01;;;;;;;;;;;18.50;87.00;;;;;;5073812;28;19913;-47
2022/09/20 04:16:33;;;;;;;;;;;18.40;87.00;;;;;;5073487;28;19920;-47
2022/09/20 04:19:02;;;;;;;;;;;18.50;87.10;;;;;;5073810;28;19916;-46
2022/09/20 04:21:31;;;;;;;;;;;18.50;86.90;;;;;;5073690;28;19908;-52
2022/09/20 04:23:59;;;;;;;;;;;18.50;87.00;;;;;;5073438;28;19919;-47
2022/09/20 04:26:26;;;;;;;;;;;18.50;86.80;;;;;;5055735;28;20023;-49
2022/09/20 04:28:51;;;;;;;;;;;18.50;87.10;;;;;;5073630;28;19915;-50
2022/09/20 04:31:43;;;;;;;;;;;18.50;86.90;;;;;;5073647;28;20259;-47
2022/09/20 04:34:13;;;;;;;;;;;18.40;87.10;;;;;;5049637;28;20363;-46
2022/09/20 04:36:55;;;;;;;;;;;18.40;87.10;;;;;;5096097;28;20334;-48
2022/09/20 04:39:41;;;;;;;;;;;18.50;87.30;;;;;;5095796;28;20004;-48
2022/09/20 04:42:22;;;;;;;;;;;18.50;87.20;;;;;;5113959;28;19953;-50
2022/09/20 04:44:56;;;;;;;;;;;18.50;87.30;;;;;;5095893;28;20330;-51
2022/09/20 04:47:34;;;;;;;;;;;18.40;87.00;;;;;;5095758;28;19915;-48
2022/09/20 04:50:15;;;;;;;;;;;18.50;87.30;;;;;;5116453;28;19907;-48
2022/09/20 04:52:54;;;;;;;;;;;18.50;87.20;;;;;;5118021;28;19908;-48
2022/09/20 04:55:40;;;;;;;;;;;18.40;87.10;;;;;;5117630;28;19912;-50
2022/09/20 04:58:05;;;;;;;;;;;18.40;87.10;;;;;;5117310;28;19916;-49
2022/09/20 05:00:49;;;;;;;;;;;18.40;87.30;;;;;;5117365;28;19907;-49
2022/09/20 05:03:33;;;;;;;;;;;18.40;87.20;;;;;;5116851;28;20450;-46
2022/09/20 05:06:03;;;;;;;;;;;18.40;87.20;;;;;;5115989;28;20338;-48
2022/09/20 05:08:41;;;;;;;;;;;18.40;87.40;;;;;;5117171;28;20375;-48
2022/09/20 05:11:26;;;;;;;;;;;18.30;87.40;;;;;;5117144;28;19911;-47
2022/09/20 05:13:55;;;;;;;;;;;18.40;87.40;;;;;;5099047;28;19920;-50
2022/09/20 05:16:28;;;;;;;;;;;18.40;87.40;;;;;;5117378;28;19916;-50
2022/09/20 05:18:54;;;;;;;;;;;18.40;87.40;;;;;;5117323;28;19908;-48
2022/09/20 05:21:28;;;;;;;;;;;18.40;87.10;;;;;;5116919;28;19908;-47
2022/09/20 05:23:59;;;;;;;;;;;18.40;87.20;;;;;;5116947;28;19927;-50
2022/09/20 05:26:27;;;;;;;;;;;18.40;87.30;;;;;;5117093;28;19908;-48
2022/09/20 05:28:57;;;;;;;;;;;18.40;87.30;;;;;;5116974;28;19907;-50
2022/09/20 05:31:27;;;;;;;;;;;18.40;87.40;;;;;;5098533;28;19957;-48
2022/09/20 05:33:55;;;;;;;;;;;18.40;87.10;;;;;;5116401;28;19956;-50
2022/09/20 05:36:42;;;;;;;;;;;18.50;87.00;;;;;;5108124;28;19999;-48
2022/09/20 05:39:17;;;;;;;;;;;18.40;87.30;;;;;;5096315;28;19952;-48
2022/09/20 05:42:02;;;;;;;;;;;18.40;87.40;;;;;;5078384;28;19908;-49
2022/09/20 05:44:36;;;;;;;;;;;18.40;87.40;;;;;;5095909;28;19936;-47
2022/09/20 05:47:17;;;;;;;;;;;18.40;87.20;;;;;;5095854;28;20290;-48
2022/09/20 05:50:01;;;;;;;;;;;18.40;87.20;;;;;;5096119;28;20378;-51
2022/09/20 05:52:26;;;;;;;;;;;18.40;87.30;;;;;;5093702;28;19963;-51
2022/09/20 05:54:52;;;;;;;;;;;18.40;87.40;;;;;;5084488;28;19959;-49
2022/09/20 05:57:30;;;;;;;;;;;18.40;87.60;;;;;;5095820;28;20334;-50
2022/09/20 06:00:15;;;;;;;;;;;18.50;87.30;;;;;;5082339;28;19947;-49
2022/09/20 06:02:53;;;;;;;;;;;18.40;87.50;;;;;;5096323;28;19949;-47
2022/09/20 06:05:28;;;;;;;;;;;18.40;87.20;;;;;;5096269;28;19920;-50
2022/09/20 06:08:01;;;;;;;;;;;18.50;87.50;;;;;;5096289;28;19912;-49
2022/09/20 06:10:46;;;;;;;;;;;18.40;87.40;;;;;;5096050;28;19961;-48
2022/09/20 06:13:14;;;;;;;;;;;18.50;87.60;;;;;;5095202;28;19908;-50
2022/09/20 06:15:44;;;;;;;;;;;18.50;87.90;;;;;;5095307;28;19923;-49
2022/09/20 06:18:12;;;;;;;;;;;18.40;88.00;;;;;;5075305;28;19935;-51
2022/09/20 06:20:43;;;;;;;;;;;18.40;87.90;;;;;;5097847;28;19916;-47
2022/09/20 06:23:09;;;;;;;;;;;18.40;88.00;;;;;;5084385;28;19913;-54
2022/09/20 06:25:39;;;;;;;;;;;18.40;88.10;;;;;;5067482;28;20003;-51
2022/09/20 06:28:16;;;;;;;;;;;18.40;88.10;;;;;;5074660;28;20002;-48
2022/09/20 06:30:52;;;;;;;;;;;18.40;88.10;;;;;;5075489;28;19908;-48
2022/09/20 06:33:17;;;;;;;;;;;18.40;88.20;;;;;;5074956;28;20000;-47
2022/09/20 06:35:43;;;;;;;;;;;18.30;88.20;;;;;;5082116;28;20389;-48
2022/09/20 06:41:27;;;;;;;;;;;18.30;88.80;;;;;;5115388;28;19916;-50
2022/09/20 06:43:57;;;;;;;;;;;18.30;88.20;;;;;;5115593;28;19908;-48
2022/09/20 06:46:24;;;;;;;;;;;18.30;88.20;;;;;;5094827;28;19915;-50
2022/09/20 06:48:50;;;;;;;;;;;18.30;88.30;;;;;;5090399;28;20010;-46
2022/09/20 06:51:15;;;;;;;;;;;18.30;88.20;;;;;;5108276;28;19958;-49
2022/09/20 06:53:41;;;;;;;;;;;18.30;88.20;;;;;;5086658;28;19960;-45
2022/09/20 06:56:07;;;;;;;;;;;18.30;88.20;;;;;;5104380;28;19924;-47
2022/09/20 06:58:33;;;;;;;;;;;18.30;88.10;;;;;;5094355;28;19915;-47
2022/09/20 07:00:58;;;;;;;;;;;18.30;88.00;;;;;;5102937;28;20402;-49
2022/09/20 07:03:23;;;;;;;;;;;18.40;88.30;;;;;;5099378;28;20002;-52
2022/09/20 07:05:49;;;;;;;;;;;18.40;88.50;;;;;;5112733;28;19912;-50
2022/09/20 07:08:15;;;;;;;;;;;18.40;88.30;;;;;;5115114;28;20331;-52
2022/09/20 07:10:42;;;;;;;;;;;18.40;88.60;;;;;;5112890;28;19919;-52
2022/09/20 07:13:09;;;;;;;;;;;18.40;88.60;;;;;;5104812;28;19916;-51
2022/09/20 07:15:35;;;;;;;;;;;18.40;88.70;;;;;;5110010;28;19915;-54
2022/09/20 07:18:01;;;;;;;;;;;18.40;88.60;;;;;;5106992;28;20385;-53
2022/09/20 07:20:26;;;;;;;;;;;18.40;88.70;;;;;;5114800;28;20320;-53
2022/09/20 07:22:52;;;;;;;;;;;18.30;88.60;;;;;;5108011;28;20350;-50
2022/09/20 07:25:18;;;;;;;;;;;18.40;88.80;;;;;;5096491;28;19915;-49
2022/09/20 07:27:45;;;;;;;;;;;18.40;88.70;;;;;;5088539;28;19916;-51
2022/09/20 07:30:11;;;;;;;;;;;18.30;88.80;;;;;;5109865;28;19912;-52
2022/09/20 07:32:37;;;;;;;;;;;18.40;88.70;;;;;;5110949;28;19916;-52
2022/09/20 07:35:03;;;;;;;;;;;18.40;88.70;;;;;;5110683;28;19920;-51
2022/09/20 07:37:28;;;;;;;;;;;18.40;88.70;;;;;;5086094;28;19916;-52
2022/09/20 07:39:53;;;;;;;;;;;18.40;88.70;;;;;;5110314;28;19912;-54
2022/09/20 07:42:19;;;;;;;;;;;18.40;88.60;;;;;;5110114;28;19995;-54
2022/09/20 07:44:46;;;;;;;;;;;18.40;88.60;;;;;;5102323;28;20278;-53
2022/09/20 07:47:13;;;;;;;;;;;18.40;88.60;;;;;;5092518;28;20278;-53
2022/09/20 07:49:39;;;;;;;;;;;18.50;88.70;;;;;;5109737;28;19919;-51
2022/09/20 07:52:04;;;;;;;;;;;18.40;88.70;;;;;;5096447;28;19912;-55
2022/09/20 07:54:30;;;;;;;;;;;18.40;88.80;;;;;;5104368;28;19915;-54
2022/09/20 07:56:55;;;;;;;;;;;18.40;88.80;;;;;;5109068;28;20554;-64
2022/09/20 07:59:21;;;;;;;;;;;18.40;88.70;;;;;;5088342;28;19912;-53
2022/09/20 08:01:46;;;;;;;;;;;18.40;88.70;;;;;;5112172;28;20006;-56
2022/09/20 08:04:12;;;;;;;;;;;18.40;88.70;;;;;;5113991;28;20270;-51
2022/09/20 08:06:39;;;;;;;;;;;18.40;88.70;;;;;;5089101;28;19912;-53
2022/09/20 08:09:05;;;;;;;;;;;18.40;88.70;;;;;;5084680;28;20008;-50
2022/09/20 08:11:30;;;;;;;;;;;18.40;88.70;;;;;;5101652;28;20367;-47
2022/09/20 08:13:58;;;;;;;;;;;18.50;88.70;;;;;;5111162;28;19965;-50
2022/09/20 08:16:24;;;;;;;;;;;18.50;88.70;;;;;;5109631;28;20382;-52
2022/09/20 08:18:49;;;;;;;;;;;18.50;88.60;;;;;;5087314;28;20010;-54
2022/09/20 08:21:15;;;;;;;;;;;18.50;88.60;;;;;;5103611;28;19914;-48
2022/09/20 08:23:41;;;;;;;;;;;18.40;88.50;;;;;;5109260;28;19908;-49
2022/09/20 08:26:11;;;;;;;;;;;18.40;88.50;;;;;;5118278;28;20396;-52
2022/09/20 08:28:36;;;;;;;;;;;18.40;88.40;;;;;;5106412;28;20266;-52
2022/09/20 08:31:23;;;;;;;;;;;18.50;88.40;;;;;;5106528;28;19915;-48
2022/09/20 08:33:51;;;;;;;;;;;18.50;88.40;;;;;;5113302;28;20288;-48
2022/09/20 08:36:18;;;;;;;;;;;18.50;88.30;;;;;;5096391;28;20033;-48
2022/09/20 08:38:44;;;;;;;;;;;18.50;88.30;;;;;;5117046;28;19915;-51
2022/09/20 08:41:18;;;;;;;;;;;18.60;88.20;;;;;;5113761;28;19908;-52
2022/09/20 08:43:47;;;;;;;;;;;18.60;88.20;;;;;;5093591;28;19981;-48
2022/09/20 08:46:13;;;;;;;;;;;18.60;88.20;;;;;;5094194;28;19911;-51
2022/09/20 08:48:39;;;;;;;;;;;18.60;88.10;;;;;;5113337;28;19931;-53
2022/09/20 08:51:05;;;;;;;;;;;18.60;88.10;;;;;;5093226;28;20262;-52
2022/09/20 08:53:31;;;;;;;;;;;18.60;88.10;;;;;;5115356;28;20378;-54
2022/09/20 08:55:58;;;;;;;;;;;18.60;88.10;;;;;;5113802;28;19990;-53
2022/09/20 08:58:24;;;;;;;;;;;18.60;88.10;;;;;;5093291;28;20262;-55
2022/09/20 09:00:49;;;;;;;;;;;18.60;88.10;;;;;;5110387;28;19907;-47
2022/09/20 09:03:16;;;;;;;;;;;18.60;88.10;;;;;;5088301;28;19991;-48
2022/09/20 09:05:45;;;;;;;;;;;18.60;88.10;;;;;;5113156;28;20346;-54
2022/09/20 09:08:15;;;;;;;;;;;18.60;88.10;;;;;;5111483;28;20343;-53
2022/09/20 09:10:42;;;;;;;;;;;18.70;88.10;;;;;;5112991;28;19915;-54
2022/09/20 09:13:13;;;;;;;;;;;18.70;88.10;;;;;;5096058;28;19914;-53
2022/09/20 09:15:39;;;;;;;;;;;18.70;88.10;;;;;;5113398;28;19918;-52
2022/09/20 09:18:07;;;;;;;;;;;18.70;88.10;;;;;;5095460;28;19911;-54
2022/09/20 09:20:39;;;;;;;;;;;18.70;88.00;;;;;;5117029;28;19908;-54
2022/09/20 09:23:07;;;;;;;;;;;18.70;88.00;;;;;;5109259;28;19940;-52
2022/09/20 09:25:39;;;;;;;;;;;18.70;87.90;;;;;;5113454;28;19912;-54
2022/09/20 09:28:07;;;;;;;;;;;18.70;88.00;;;;;;5116973;28;20330;-51
2022/09/20 09:30:35;;;;;;;;;;;18.70;88.00;;;;;;5114119;28;19908;-50
2022/09/20 09:33:15;;;;;;;;;;;18.70;88.00;;;;;;5097064;28;19947;-50
2022/09/20 09:35:40;;;;;;;;;;;18.80;87.80;;;;;;5098486;28;19919;-52
2022/09/20 09:38:17;;;;;;;;;;;18.80;87.90;;;;;;5088775;28;19916;-51
2022/09/20 09:41:01;;;;;;;;;;;18.80;88.00;;;;;;5114056;28;19915;-51
2022/09/20 09:43:29;;;;;;;;;;;18.80;87.90;;;;;;5116737;28;19960;-50
2022/09/20 09:46:16;;;;;;;;;;;18.80;87.80;;;;;;5108960;28;20346;-51
2022/09/20 09:48:41;;;;;;;;;;;18.80;87.80;;;;;;5086157;28;19907;-50
2022/09/20 09:51:14;;;;;;;;;;;18.80;87.80;;;;;;5111603;28;20364;-48
2022/09/20 09:53:40;;;;;;;;;;;18.80;87.80;;;;;;5104761;28;19908;-53
2022/09/20 09:56:22;;;;;;;;;;;18.80;87.80;;;;;;5111403;28;19935;-55
2022/09/20 09:58:54;;;;;;;;;;;18.80;87.80;;;;;;5111911;28;19914;-52
2022/09/20 10:01:38;;;;;;;;;;;18.80;87.80;;;;;;5108178;28;20003;-54
2022/09/20 10:04:24;;;;;;;;;;;18.80;87.80;;;;;;5094111;28;19942;-51
2022/09/20 10:06:57;;;;;;;;;;;18.80;87.80;;;;;;5091541;28;19934;-54
2022/09/20 10:09:41;;;;;;;;;;;18.80;87.80;;;;;;5106457;28;19923;-51
2022/09/20 10:12:15;;;;;;;;;;;18.80;87.80;;;;;;5103942;28;20010;-47
2022/09/20 10:14:59;;;;;;;;;;;18.80;87.70;;;;;;5105327;28;20034;-49
2022/09/20 10:17:34;;;;;;;;;;;18.80;87.80;;;;;;5111935;28;19922;-53
2022/09/20 10:20:09;;;;;;;;;;;18.80;87.80;;;;;;5095081;28;20351;-48
2022/09/20 10:22:52;;;;;;;;;;;18.80;87.70;;;;;;5084872;28;19912;-50
2022/09/20 10:25:36;;;;;;;;;;;18.80;87.70;;;;;;5095521;28;19934;-45
2022/09/20 10:28:20;;;;;;;;;;;18.80;87.70;;;;;;5091301;28;20023;-46
2022/09/20 10:31:06;;;;;;;;;;;18.80;87.60;;;;;;5094925;28;19911;-45
2022/09/20 10:33:37;;;;;;;;;;;18.80;87.60;;;;;;5055039;28;20037;-50
2022/09/20 10:36:25;;;;;;;;;;;18.80;87.60;;;;;;5094483;28;19920;-50
2022/09/20 10:38:55;;;;;;;;;;;18.80;87.50;;;;;;5104152;28;19913;-49
2022/09/20 10:44:35;;;;;;;;;;;18.80;87.40;;;;;;5095143;28;19919;-48
2022/09/20 10:47:11;;;;;;;;;;;18.80;87.40;;;;;;5090188;28;19908;-47
2022/09/20 10:49:53;;;;;;;;;;;18.80;87.40;;;;;;5082293;28;19912;-49
2022/09/20 10:52:24;;;;;;;;;;;18.80;87.30;;;;;;5105192;28;20324;-48
2022/09/20 10:55:02;;;;;;;;;;;18.70;87.20;;;;;;5109977;28;20377;-54
2022/09/20 10:57:40;;;;;;;;;;;18.80;87.30;;;;;;5091814;28;19920;-54
2022/09/20 11:00:06;;;;;;;;;;;18.80;87.20;;;;;;5100346;28;19918;-49
2022/09/20 11:02:34;;;;;;;;;;;18.80;87.20;;;;;;5102558;28;19951;-53
2022/09/20 11:05:19;;;;;;;;;;;18.80;87.20;;;;;;5076538;28;19927;-53
2022/09/20 11:07:51;;;;;;;;;;;18.80;87.70;;;;;;5094605;28;19908;-53
2022/09/20 11:10:22;;;;;;;;;;;18.80;87.20;;;;;;5095017;28;19912;-54
2022/09/20 11:12:52;;;;;;;;;;;18.80;87.10;;;;;;5094612;28;19955;-54
2022/09/20 11:15:20;;;;;;;;;;;18.80;87.20;;;;;;5078170;28;20048;-57
2022/09/20 11:18:06;;;;;;;;;;;18.80;87.20;;;;;;5100921;28;20406;-56
2022/09/20 11:20:36;;;;;;;;;;;18.80;87.20;;;;;;5094314;28;20426;-55
2022/09/20 11:23:09;;;;;;;;;;;18.80;87.30;;;;;;5108686;28;19912;-50
2022/09/20 11:25:43;;;;;;;;;;;18.80;87.30;;;;;;5114506;28;19918;-52
2022/09/20 11:28:18;;;;;;;;;;;18.80;87.30;;;;;;5096085;28;19963;-51
2022/09/20 11:30:50;;;;;;;;;;;18.80;87.30;;;;;;5094379;28;19915;-53
2022/09/20 11:33:16;;;;;;;;;;;18.80;87.30;;;;;;5090749;28;19943;-53
2022/09/20 11:35:44;;;;;;;;;;;18.80;87.30;;;;;;5097352;28;19962;-53
2022/09/20 11:38:31;;;;;;;;;;;18.90;87.30;;;;;;5114483;28;19919;-49
2022/09/20 11:41:24;;;;;;;;;;;18.90;87.30;;;;;;5103576;28;20299;-57
2022/09/20 11:43:52;;;;;;;;;;;18.90;87.30;;;;;;5098652;28;19912;-50
2022/09/20 11:46:20;;;;;;;;;;;18.90;87.20;;;;;;5103897;28;19916;-50
2022/09/20 11:48:50;;;;;;;;;;;18.90;87.30;;;;;;5106244;28;20336;-54
2022/09/20 11:51:18;;;;;;;;;;;18.90;87.30;;;;;;5099859;28;19920;-54
2022/09/20 11:53:56;;;;;;;;;;;18.90;87.20;;;;;;5093137;28;19908;-52
2022/09/20 11:56:21;;;;;;;;;;;18.90;87.20;;;;;;5099969;28;19985;-52
2022/09/20 11:58:48;;;;;;;;;;;18.90;87.20;;;;;;5103312;28;20357;-52
2022/09/20 12:01:34;;;;;;;;;;;19.00;87.30;;;;;;5106713;28;19957;-51
2022/09/20 12:04:02;;;;;;;;;;;19.00;87.20;;;;;;5113133;28;19920;-56
2022/09/20 12:06:32;;;;;;;;;;;18.90;87.20;;;;;;5113733;28;19954;-51
2022/09/20 12:09:00;;;;;;;;;;;19.00;87.20;;;;;;5113939;28;20328;-50
2022/09/20 12:11:37;;;;;;;;;;;18.90;87.20;;;;;;5109062;28;19980;-48
2022/09/20 12:14:03;;;;;;;;;;;19.00;87.20;;;;;;5073942;28;19916;-51
2022/09/20 12:16:45;;;;;;;;;;;18.90;87.20;;;;;;5072967;28;19995;-54
2022/09/20 12:19:12;;;;;;;;;;;19.00;87.20;;;;;;5078688;28;20347;-54
2022/09/20 12:21:57;;;;;;;;;;;18.90;87.20;;;;;;5107855;28;20299;-53
2022/09/20 12:24:23;;;;;;;;;;;19.00;87.30;;;;;;5114090;28;19958;-53
2022/09/20 12:26:50;;;;;;;;;;;19.00;87.30;;;;;;5108565;28;20343;-51
2022/09/20 12:29:25;;;;;;;;;;;19.00;87.30;;;;;;5093787;28;20094;-51
2022/09/20 12:31:55;;;;;;;;;;;19.00;87.30;;;;;;5106062;28;19912;-51
2022/09/20 12:34:21;;;;;;;;;;;19.00;87.30;;;;;;5114282;28;20296;-51
2022/09/20 12:36:50;;;;;;;;;;;19.00;87.20;;;;;;5105875;28;20032;-49
2022/09/20 12:39:17;;;;;;;;;;;19.00;87.20;;;;;;5113671;28;19922;-52
2022/09/20 12:41:45;;;;;;;;;;;19.00;87.10;;;;;;5113798;28;19924;-51
2022/09/20 12:44:19;;;;;;;;;;;19.00;87.20;;;;;;5100702;28;19965;-49
2022/09/20 12:46:51;;;;;;;;;;;19.00;87.20;;;;;;5108453;28;19957;-53
2022/09/20 12:52:49;;;;;;;;;;;19.00;87.20;;;;;;5113783;28;19911;-50
2022/09/20 12:55:03;;;;;;;;;;;19.00;87.20;;;;;;5113330;28;19922;-49
2022/09/20 12:57:34;;;;;;;;;;;19.00;87.10;;;;;;5083924;28;19916;-54
2022/09/20 13:00:00;;;;;;;;;;;19.00;87.10;;;;;;5113795;28;19908;-51
2022/09/20 13:02:43;;;;;;;;;;;19.00;87.10;;;;;;5094640;28;19908;-48
2022/09/20 13:05:28;;;;;;;;;;;19.00;87.10;;;;;;5095391;28;19920;-50
2022/09/20 13:07:59;;;;;;;;;;;19.00;87.10;;;;;;5107271;28;19974;-53
2022/09/20 13:10:29;;;;;;;;;;;19.00;87.20;;;;;;5096424;28;19995;-54
2022/09/20 13:12:58;;;;;;;;;;;19.00;87.10;;;;;;5097415;28;19912;-55
2022/09/20 13:15:23;;;;;;;;;;;19.00;87.20;;;;;;5091817;28;19916;-54
2022/09/20 13:17:51;;;;;;;;;;;19.00;87.10;;;;;;5107233;28;19925;-54
2022/09/20 13:20:19;;;;;;;;;;;19.00;87.10;;;;;;5095197;28;20370;-49
2022/09/20 13:22:46;;;;;;;;;;;19.10;87.10;;;;;;5104100;28;19965;-55
2022/09/20 13:25:12;;;;;;;;;;;19.00;87.10;;;;;;5101690;28;19912;-51
2022/09/20 13:27:39;;;;;;;;;;;19.00;87.20;;;;;;5110685;28;19912;-51
2022/09/20 13:30:19;;;;;;;;;;;19.00;87.20;;;;;;5104631;28;19911;-55
2022/09/20 13:32:45;;;;;;;;;;;19.00;87.20;;;;;;5107140;28;19908;-50
2022/09/20 13:35:11;;;;;;;;;;;19.00;87.20;;;;;;5101044;28;19916;-51
2022/09/20 13:37:48;;;;;;;;;;;19.00;87.10;;;;;;5102121;28;19970;-50
2022/09/20 13:40:18;;;;;;;;;;;19.10;87.20;;;;;;5090969;28;20259;-52
2022/09/20 13:42:44;;;;;;;;;;;19.10;87.20;;;;;;5101629;28;20003;-54
2022/09/20 13:45:12;;;;;;;;;;;19.10;87.20;;;;;;5104428;28;19916;-53
2022/09/20 13:47:40;;;;;;;;;;;19.00;87.10;;;;;;5116795;28;19914;-54
2022/09/20 13:50:22;;;;;;;;;;;19.10;87.20;;;;;;5111602;28;19919;-55
2022/09/20 13:52:49;;;;;;;;;;;19.00;87.10;;;;;;5111459;28;20003;-55
2022/09/20 13:55:25;;;;;;;;;;;19.00;87.20;;;;;;5097685;28;19923;-56
2022/09/20 13:57:52;;;;;;;;;;;19.10;87.50;;;;;;5077819;28;19958;-54
2022/09/20 14:00:18;;;;;;;;;;;19.00;87.20;;;;;;5092186;28;19960;-50
2022/09/20 14:02:46;;;;;;;;;;;19.00;87.20;;;;;;5095682;28;19962;-55
2022/09/20 14:05:15;;;;;;;;;;;19.10;87.30;;;;;;5109743;28;19955;-52
2022/09/20 14:07:43;;;;;;;;;;;19.00;87.20;;;;;;5108654;28;19916;-55
2022/09/20 14:10:29;;;;;;;;;;;19.00;87.20;;;;;;5109646;28;19919;-54
2022/09/20 14:12:56;;;;;;;;;;;19.00;87.20;;;;;;5108074;28;20378;-52
2022/09/20 14:15:22;;;;;;;;;;;19.00;87.20;;;;;;5094578;28;19912;-54
2022/09/20 14:17:50;;;;;;;;;;;19.00;87.30;;;;;;5114200;28;19938;-51
2022/09/20 14:20:16;;;;;;;;;;;19.00;87.30;;;;;;5088099;28;19919;-51
2022/09/20 14:22:42;;;;;;;;;;;19.00;87.20;;;;;;5115919;28;19908;-54
2022/09/20 14:25:11;;;;;;;;;;;19.00;87.20;;;;;;5095464;28;19964;-51
2022/09/20 14:27:37;;;;;;;;;;;19.00;87.20;;;;;;5102861;28;20002;-51
2022/09/20 14:30:03;;;;;;;;;;;19.00;87.20;;;;;;5107311;28;19919;-52
2022/09/20 14:32:37;;;;;;;;;;;19.00;87.20;;;;;;5090176;28;19912;-52
2022/09/20 14:35:23;;;;;;;;;;;19.10;87.20;;;;;;5115420;28;19919;-51
2022/09/20 14:37:50;;;;;;;;;;;19.10;87.20;;;;;;5092354;28;20006;-51
2022/09/20 14:40:21;;;;;;;;;;;19.00;87.20;;;;;;5115576;28;19907;-51
2022/09/20 14:42:57;;;;;;;;;;;19.10;87.20;;;;;;5085970;28;19916;-53
2022/09/20 14:45:25;;;;;;;;;;;19.00;87.10;;;;;;5080154;28;20366;-53
2022/09/20 14:48:03;;;;;;;;;;;19.00;87.20;;;;;;5113248;28;20002;-52
2022/09/20 14:50:33;;;;;;;;;;;19.00;87.10;;;;;;5111489;28;19919;-49
2022/09/20 14:53:07;;;;;;;;;;;19.00;87.20;;;;;;5112352;28;19908;-50